sensor_id;sensor_type;location;lat;lon;timestamp;temperature;humidity
12460;DHT22;6295;49.452;8.466;2024-03-23T08:14:58;9.40;99.90
12460;DHT22;6295;49.452;8.466;2024-03-23T08:19:00;9.50;99.90
12460;DHT22;6295;49.452;8.466;2024-03-23T08:23:05;9.70;99.90
12460;DHT22;6295;49.452;8.466;2024-03-23T08:27:08;9.70;99.90
12460;DHT22;6295;49.452;8.466;2024-03-23T08:31:12;9.70;99.90
12460;DHT22;6295;49.452;8.466;2024-03-23T08:35:18;9.60;99.90
12460;DHT22;6295;49.452;8.466;2024-03-23T08:39:21;9.60;99.90
12460;DHT22;6295;49.452;8.466;2024-03-23T08:43:27;9.70;99.90
12460;DHT22;6295;49.452;8.466;2024-03-23T08:47:35;9.80;99.90
12460;DHT22;6295;49.452;8.466;2024-03-23T08:51:40;9.90;99.90
12460;DHT22;6295;49.452;8.466;2024-03-23T08:55:50;10.00;99.90
12460;DHT22;6295;49.452;8.466;2024-03-23T08:59:54;10.10;99.90
12460;DHT22;6295;49.452;8.466;2024-03-23T09:04:00;10.20;99.90
12460;DHT22;6295;49.452;8.466;2024-03-23T09:08:03;10.30;99.90
12460;DHT22;6295;49.452;8.466;2024-03-23T09:12:08;10.40;99.90
12460;DHT22;6295;49.452;8.466;2024-03-23T09:16:12;10.50;99.90
12460;DHT22;6295;49.452;8.466;2024-03-23T09:20:17;10.40;99.90
12460;DHT22;6295;49.452;8.466;2024-03-23T09:24:19;10.40;99.90
12460;DHT22;6295;49.452;8.466;2024-03-23T09:28:22;10.30;99.90
12460;DHT22;6295;49.452;8.466;2024-03-23T09:32:25;10.30;99.90
12460;DHT22;6295;49.452;8.466;2024-03-23T09:36:28;10.40;99.90
12460;DHT22;6295;49.452;8.466;2024-03-23T09:40:31;10.40;99.90
12460;DHT22;6295;49.452;8.466;2024-03-23T09:44:35;10.40;99.90
12460;DHT22;6295;49.452;8.466;2024-03-23T09:48:39;10.30;99.90
12460;DHT22;6295;49.452;8.466;2024-03-23T09:52:45;10.30;99.90
12460;DHT22;6295;49.452;8.466;2024-03-23T09:56:50;10.30;99.90
12460;DHT22;6295;49.452;8.466;2024-03-23T10:00:53;10.40;99.90
12460;DHT22;6295;49.452;8.466;2024-03-23T10:04:57;10.40;99.90
12460;DHT22;6295;49.452;8.466;2024-03-23T10:09:02;10.40;99.90
12460;DHT22;6295;49.452;8.466;2024-03-23T10:13:04;10.50;99.90
12460;DHT22;6295;49.452;8.466;2024-03-23T10:17:13;10.50;99.90
12460;DHT22;6295;49.452;8.466;2024-03-23T10:21:21;10.50;99.90
12460;DHT22;6295;49.452;8.466;2024-03-23T10:25:27;10.60;99.90
12460;DHT22;6295;49.452;8.466;2024-03-23T10:29:30;10.60;99.90
12460;DHT22;6295;49.452;8.466;2024-03-23T10:33:31;10.70;99.90
12460;DHT22;6295;49.452;8.466;2024-03-23T10:37:33;10.80;99.90
12460;DHT22;6295;49.452;8.466;2024-03-23T10:41:37;10.80;99.90
12460;DHT22;6295;49.452;8.466;2024-03-23T10:45:41;10.80;99.90
12460;DHT22;6295;49.452;8.466;2024-03-23T10:49:43;10.90;99.90
12460;DHT22;6295;49.452;8.466;2024-03-23T10:53:50;11.00;99.90
12460;DHT22;6295;49.452;8.466;2024-03-23T10:57:59;11.30;99.90
12460;DHT22;6295;49.452;8.466;2024-03-23T11:02:02;11.50;99.90
12460;DHT22;6295;49.452;8.466;2024-03-23T11:06:08;11.60;99.90
12460;DHT22;6295;49.452;8.466;2024-03-23T11:10:27;11.60;99.90
12460;DHT22;6295;49.452;8.466;2024-03-23T11:14:35;11.60;99.50
12460;DHT22;6295;49.452;8.466;2024-03-23T11:18:41;11.80;99.90
12460;DHT22;6295;49.452;8.466;2024-03-23T11:22:46;11.80;99.80
12460;DHT22;6295;49.452;8.466;2024-03-23T11:26:53;11.70;99.90
12460;DHT22;6295;49.452;8.466;2024-03-23T11:31:09;11.60;99.90
12460;DHT22;6295;49.452;8.466;2024-03-23T11:35:27;11.60;99.90
12460;DHT22;6295;49.452;8.466;2024-03-23T11:39:30;11.40;99.90
12460;DHT22;6295;49.452;8.466;2024-03-23T11:43:32;11.30;99.90
12460;DHT22;6295;49.452;8.466;2024-03-23T11:51:37;10.40;99.90
12460;DHT22;6295;49.452;8.466;2024-03-23T11:59:42;9.70;99.90
12460;DHT22;6295;49.452;8.466;2024-03-23T12:11:55;9.70;99.90
12460;DHT22;6295;49.452;8.466;2024-03-23T12:20:19;9.90;99.90
12460;DHT22;6295;49.452;8.466;2024-03-23T12:24:24;10.00;99.90
12460;DHT22;6295;49.452;8.466;2024-03-23T12:32:33;9.90;99.90
12460;DHT22;6295;49.452;8.466;2024-03-23T12:36:36;9.90;99.90
12460;DHT22;6295;49.452;8.466;2024-03-23T12:40:38;10.20;99.90
12460;DHT22;6295;49.452;8.466;2024-03-23T12:48:44;10.50;99.90
12460;DHT22;6295;49.452;8.466;2024-03-23T12:52:48;10.50;99.90
12460;DHT22;6295;49.452;8.466;2024-03-23T13:04:54;8.80;99.90
12460;DHT22;6295;49.452;8.466;2024-03-23T13:08:57;8.30;99.90
12460;DHT22;6295;49.452;8.466;2024-03-23T13:12:59;8.10;99.90
12460;DHT22;6295;49.452;8.466;2024-03-23T13:21:04;8.60;99.90
12460;DHT22;6295;49.452;8.466;2024-03-23T13:33:14;9.10;99.90
12460;DHT22;6295;49.452;8.466;2024-03-23T13:37:16;9.20;99.90
12460;DHT22;6295;49.452;8.466;2024-03-23T13:49:28;9.30;99.90
12460;DHT22;6295;49.452;8.466;2024-03-23T13:57:35;9.40;99.90
12460;DHT22;6295;49.452;8.466;2024-03-23T14:01:39;9.50;99.90
12460;DHT22;6295;49.452;8.466;2024-03-23T14:42:12;10.70;99.90
12460;DHT22;6295;49.452;8.466;2024-03-23T14:46:16;10.80;99.90
12460;DHT22;6295;49.452;8.466;2024-03-23T14:50:19;10.80;99.90
12460;DHT22;6295;49.452;8.466;2024-03-23T14:54:22;10.80;99.90
12460;DHT22;6295;49.452;8.466;2024-03-23T15:02:28;10.70;99.90
12460;DHT22;6295;49.452;8.466;2024-03-23T15:10:34;11.20;99.90
12460;DHT22;6295;49.452;8.466;2024-03-23T15:14:36;10.70;99.90
12460;DHT22;6295;49.452;8.466;2024-03-23T15:22:41;10.60;99.90
12460;DHT22;6295;49.452;8.466;2024-03-23T15:30:47;10.50;99.90
12460;DHT22;6295;49.452;8.466;2024-03-23T15:34:50;10.40;99.90
12460;DHT22;6295;49.452;8.466;2024-03-23T16:07:15;8.80;99.90
12460;DHT22;6295;49.452;8.466;2024-03-23T16:31:46;8.90;99.90
12460;DHT22;6295;49.452;8.466;2024-03-23T16:35:58;8.70;99.90
12460;DHT22;6295;49.452;8.466;2024-03-23T16:40:07;8.70;99.90
12460;DHT22;6295;49.452;8.466;2024-03-23T16:48:12;8.50;99.90
12460;DHT22;6295;49.452;8.466;2024-03-23T16:52:14;8.50;99.90
12460;DHT22;6295;49.452;8.466;2024-03-23T16:56:18;8.50;99.90
12460;DHT22;6295;49.452;8.466;2024-03-23T17:00:20;8.40;99.90
12460;DHT22;6295;49.452;8.466;2024-03-23T17:12:28;8.30;99.90
12460;DHT22;6295;49.452;8.466;2024-03-23T17:20:39;8.20;99.90
12460;DHT22;6295;49.452;8.466;2024-03-23T17:37:01;8.20;99.90
12460;DHT22;6295;49.452;8.466;2024-03-23T17:41:05;8.20;99.90
12460;DHT22;6295;49.452;8.466;2024-03-23T17:49:14;8.20;99.90
12460;DHT22;6295;49.452;8.466;2024-03-23T17:53:18;8.20;99.90
